Terminal Aerodrome Forecast
Issued by NWS

Home | Current Version | Previous Version | Text Only | Print | Product List | Glossary Off
Versions: 1 2 3 4 5 6 7 8 9 10 11 12 13 14 15 16 17 18 19 20

000
FTUS43 KABR 230700 AAB
TAFMBG
TAF AMD
KMBG 230747Z 2308/2406 35019G25KT 2SM -SN BR FEW008 OVC015
      TEMPO 2308/2312 1SM -SN BLSN OVC007
     FM231600 32020G30KT 2SM -SN BLSN OVC010
     FM232200 32017KT P6SM OVC015=

USA.gov is the U.S. government's official web portal to all federal, state and local government web resources and services.